Weather at Bristol Filton Airport [CLOSED]

Public forecast

Using degrees Celsius for public forecast. Weather courtesy of forecast.io.

Closest aviation weather report (METAR) to Bristol Filton Airport

Report is more than 6 hours old.

Closest report is Bristol Airport, 9.5 nm (17.6 km) SSW.

2022/11/14 15:20 (retrieved 2 years ago)

EGGD 141520Z 26009KT 9999 5000SE VCSH FEW004 SCT012 BKN036 11/10 Q1006

Closest aviation forecast (TAF) to Bristol Filton Airport

Forecast is more than 12 hours old.

Closest forecast is Bristol Airport, 9.5 nm (17.6 km) SSW.

2023/02/22 19:28 Ammendment (retrieved 1 year ago)

TAF AMD EGGD 221917Z 2219/2318 31009KT 9999 SCT030 PROB30 TEMPO 2219/2220 6000 SHRA BKN011 BECMG 2220/2223 01010KT TEMPO 2300/2310 7000 RA SHRA BKN008